Time;durP1;ratioP1;P1;durP2;ratioP2;P2;SDS_P1;SDS_P2;PMS_P1;PMS_P2;Temp;Humidity;BMP_temperature;BMP_pressure;BME280_temperature;BME280_humidity;BME280_pressure;Samples;Min_cycle;Max_cycle;Signal;HPM_P1;HPM_P2
2022/07/28 00:00:41;;;;;;;5.05;1.48;;;;;;;14.48;64.63;97319.75;4949287;28;20039;-58
2022/07/28 00:03:07;;;;;;;3.70;1.38;;;;;;;14.55;64.06;97321.09;4964384;28;20192;-57
2022/07/28 00:05:35;;;;;;;3.33;1.13;;;;;;;14.60;63.48;97327.59;4948188;28;20047;-55
2022/07/28 00:08:02;;;;;;;1.85;1.00;;;;;;;14.68;63.30;97316.94;4963612;28;20089;-57
2022/07/28 00:10:30;;;;;;;5.07;1.80;;;;;;;14.64;63.49;97315.88;4947228;29;20054;-58
2022/07/28 00:12:58;;;;;;;5.47;1.20;;;;;;;14.67;63.35;97307.13;4951514;28;20043;-58
2022/07/28 00:15:26;;;;;;;2.88;0.88;;;;;;;14.77;62.76;97313.63;4967438;28;20130;-58
2022/07/28 00:17:52;;;;;;;6.60;1.40;;;;;;;14.77;63.36;97300.84;4950827;28;20130;-58
2022/07/28 00:20:19;;;;;;;3.78;1.65;;;;;;;14.86;63.00;97305.69;4966924;28;20127;-58
2022/07/28 00:22:46;;;;;;;2.67;1.10;;;;;;;14.87;63.80;97304.59;4951103;28;20609;-57
2022/07/28 00:25:14;;;;;;;3.75;1.25;;;;;;;14.57;65.11;97299.00;4965343;28;20046;-57
2022/07/28 00:27:40;;;;;;;4.55;1.30;;;;;;;14.64;64.71;97299.53;4953121;28;20051;-56
2022/07/28 00:30:07;;;;;;;3.47;1.25;;;;;;;14.61;64.58;97296.53;4963591;28;20517;-60
2022/07/28 00:32:34;;;;;;;2.65;1.38;;;;;;;14.59;65.51;97298.75;4965004;28;20122;-56
2022/07/28 00:35:01;;;;;;;3.85;1.27;;;;;;;14.53;64.49;97301.47;4952351;28;20043;-58
2022/07/28 00:37:28;;;;;;;3.85;1.10;;;;;;;14.42;65.57;97300.69;4948632;28;20403;-58
2022/07/28 00:39:54;;;;;;;3.35;1.10;;;;;;;14.34;65.14;97300.47;4961840;28;20061;-57
2022/07/28 00:42:21;;;;;;;3.67;1.25;;;;;;;14.40;64.63;97296.63;4967170;28;20047;-58
2022/07/28 00:44:48;;;;;;;2.50;1.15;;;;;;;14.46;64.94;97291.97;4966611;28;20558;-58
2022/07/28 00:47:14;;;;;;;8.55;1.40;;;;;;;14.66;64.16;97285.59;4963972;28;20514;-58
2022/07/28 00:49:43;;;;;;;5.05;1.83;;;;;;;14.43;65.47;97290.63;4954738;28;20043;-58
2022/07/28 00:52:12;;;;;;;2.95;1.20;;;;;;;14.47;65.36;97302.59;4948278;28;20323;-58
2022/07/28 00:54:38;;;;;;;4.15;1.42;;;;;;;14.40;65.05;97289.28;4950375;28;20052;-58
2022/07/28 00:57:05;;;;;;;3.08;1.20;;;;;;;14.43;64.74;97286.00;4948167;28;20051;-58
2022/07/28 00:59:31;;;;;;;2.83;1.08;;;;;;;14.51;64.80;97292.78;4957489;28;20042;-58
2022/07/28 01:02:00;;;;;;;5.88;1.05;;;;;;;14.77;63.52;97281.75;4967550;28;20329;-58
2022/07/28 01:04:28;;;;;;;5.30;1.00;;;;;;;14.73;64.09;97271.66;4960709;28;20101;-57
2022/07/28 01:07:12;;;;;;;4.50;1.20;;;;;;;14.49;65.34;97280.53;4961264;28;20039;-57
2022/07/28 01:09:48;;;;;;;5.03;1.30;;;;;;;14.42;65.25;97281.63;4966769;28;20066;-56
2022/07/28 01:12:36;;;;;;;4.18;1.23;;;;;;;14.41;64.66;97271.84;4966182;28;20055;-58
2022/07/28 01:15:16;;;;;;;3.45;1.20;;;;;;;14.31;65.98;97288.22;4966181;28;20409;-56
2022/07/28 01:18:00;;;;;;;5.82;1.30;;;;;;;14.08;66.82;97287.75;4966712;28;20548;-58
2022/07/28 01:20:39;;;;;;;4.03;1.20;;;;;;;14.14;65.96;97280.38;4947573;28;20035;-57
2022/07/28 01:23:11;;;;;;;6.85;1.67;;;;;;;14.16;66.30;97281.72;4948726;28;20058;-58
2022/07/28 01:25:57;;;;;;;3.90;1.30;;;;;;;14.09;65.77;97285.84;4966563;28;20043;-58
2022/07/28 01:28:26;;;;;;;2.33;1.30;;;;;;;13.90;67.26;97279.09;4950188;28;20062;-56
2022/07/28 01:30:56;;;;;;;3.33;1.17;;;;;;;13.98;65.77;97279.63;4959009;28;20422;-57
2022/07/28 01:33:32;;;;;;;3.15;1.30;;;;;;;13.97;66.07;97269.84;4963654;28;20047;-57
2022/07/28 01:36:07;;;;;;;5.30;1.20;;;;;;;13.80;66.02;97270.97;4947965;28;20051;-57
2022/07/28 01:38:35;;;;;;;4.65;1.38;;;;;;;13.89;65.53;97269.28;4964108;28;20047;-57
2022/07/28 01:41:04;;;;;;;3.63;1.40;;;;;;;13.90;66.23;97270.91;4967266;28;20675;-57
2022/07/28 01:43:35;;;;;;;2.80;1.23;;;;;;;13.62;67.96;97265.00;4962548;28;20057;-56
2022/07/28 01:46:02;;;;;;;3.38;1.30;;;;;;;13.46;67.95;97269.63;4951600;28;20055;-58
2022/07/28 01:48:31;;;;;;;5.60;1.38;;;;;;;13.35;68.56;97257.13;4959047;28;20057;-58
2022/07/28 01:50:59;;;;;;;3.25;1.10;;;;;;;13.40;67.86;97255.22;4963752;28;20047;-58
2022/07/28 01:53:28;;;;;;;5.15;1.45;;;;;;;13.43;68.24;97255.75;4953999;28;20255;-58
2022/07/28 01:55:57;;;;;;;4.00;1.40;;;;;;;13.31;67.74;97248.69;4968216;28;20403;-58
2022/07/28 01:58:26;;;;;;;2.97;1.15;;;;;;;13.28;68.20;97254.69;4958778;28;20038;-58
2022/07/28 02:00:55;;;;;;;2.60;1.10;;;;;;;13.23;68.59;97252.75;4979832;28;20042;-55
2022/07/28 02:03:26;;;;;;;2.57;1.10;;;;;;;13.14;68.67;97248.97;4967287;28;20077;-58
2022/07/28 02:05:54;;;;;;;4.35;1.52;;;;;;;13.19;68.85;97251.66;4951901;28;20105;-57
2022/07/28 02:08:22;;;;;;;2.50;1.20;;;;;;;13.05;69.24;97251.38;4951305;28;20085;-58
2022/07/28 02:13:52;;;;;;;2.40;1.20;;;;;;;13.05;68.79;97248.66;4952791;28;20059;-58
2022/07/28 02:16:23;;;;;;;3.80;1.20;;;;;;;12.95;69.47;97251.41;4960578;28;20507;-58
2022/07/28 02:18:52;;;;;;;4.95;1.90;;;;;;;12.90;69.34;97245.97;4956392;28;20471;-54
2022/07/28 02:21:20;;;;;;;3.42;1.58;;;;;;;12.68;69.93;97241.59;4970145;28;20047;-58
2022/07/28 02:23:49;;;;;;;1.75;1.00;;;;;;;12.52;70.80;97240.72;4969685;28;20509;-58
2022/07/28 02:26:17;;;;;;;4.55;1.50;;;;;;;12.65;70.43;97234.78;4969478;28;20105;-58
2022/07/28 02:28:50;;;;;;;2.85;1.10;;;;;;;12.66;70.25;97238.31;4969904;28;20117;-58
2022/07/28 02:31:24;;;;;;;5.63;1.63;;;;;;;12.57;70.92;97240.75;4968288;28;20047;-56
2022/07/28 02:33:54;;;;;;;3.22;1.23;;;;;;;12.59;70.66;97238.56;4955774;28;20166;-57
2022/07/28 02:36:31;;;;;;;2.88;1.20;;;;;;;12.62;70.29;97238.03;4954072;28;20047;-56
2022/07/28 02:39:04;;;;;;;2.42;1.20;;;;;;;12.69;70.03;97244.03;4949934;28;20051;-57
2022/07/28 02:41:35;;;;;;;3.60;1.40;;;;;;;12.57;70.83;97236.13;4965409;28;20050;-56
2022/07/28 02:44:10;;;;;;;5.13;1.33;;;;;;;12.63;70.64;97236.16;4961050;28;20043;-57
2022/07/28 02:46:50;;;;;;;2.85;1.42;;;;;;;12.78;69.94;97232.66;4957887;28;20051;-57
2022/07/28 02:49:30;;;;;;;1.52;0.90;;;;;;;12.72;70.52;97234.53;4948437;28;20047;-57
2022/07/28 02:52:02;;;;;;;2.47;1.25;;;;;;;12.77;70.37;97237.25;4957793;28;20498;-58
2022/07/28 02:54:31;;;;;;;3.08;1.52;;;;;;;12.77;70.23;97226.38;4965969;28;20461;-58
2022/07/28 02:56:59;;;;;;;3.05;1.13;;;;;;;12.69;70.80;97221.47;4951467;28;20110;-58
2022/07/28 02:59:27;;;;;;;3.92;1.33;;;;;;;12.48;71.53;97224.97;4968279;28;20050;-58
2022/07/28 03:01:55;;;;;;;2.67;1.15;;;;;;;12.68;70.72;97225.28;4959968;28;20109;-56
2022/07/28 03:07:09;;;;;;;2.45;1.13;;;;;;;12.65;70.91;97223.94;4975324;28;20046;-58
2022/07/28 03:09:42;;;;;;;4.95;1.45;;;;;;;12.66;70.71;97224.72;4961029;28;20510;-55
2022/07/28 03:12:10;;;;;;;2.92;1.20;;;;;;;12.47;71.20;97219.81;4948223;29;20047;-58
2022/07/28 03:14:36;;;;;;;2.92;1.08;;;;;;;12.46;71.16;97219.00;4955067;28;20109;-58
2022/07/28 03:17:03;;;;;;;2.33;1.20;;;;;;;12.27;72.33;97224.09;4951164;28;20585;-58
2022/07/28 03:19:30;;;;;;;3.83;1.30;;;;;;;12.31;71.89;97224.41;4968589;28;20043;-58
2022/07/28 03:21:57;;;;;;;3.92;1.10;;;;;;;12.44;71.21;97228.47;4966792;28;20046;-57
2022/07/28 03:24:28;;;;;;;4.68;1.40;;;;;;;12.53;70.96;97228.78;4968497;28;20053;-58
2022/07/28 03:27:02;;;;;;;8.35;1.73;;;;;;;12.39;71.43;97226.59;4966075;28;20047;-58
2022/07/28 03:29:31;;;;;;;4.18;1.65;;;;;;;12.34;72.13;97219.25;4948812;28;20058;-58
2022/07/28 03:31:59;;;;;;;4.78;1.23;;;;;;;12.21;72.30;97228.69;4964880;28;20482;-58
2022/07/28 03:34:27;;;;;;;3.72;1.40;;;;;;;12.28;72.24;97219.50;4960880;28;20516;-58
2022/07/28 03:37:01;;;;;;;5.78;1.42;;;;;;;12.08;73.43;97227.28;4950528;28;20103;-58
2022/07/28 03:39:31;;;;;;;4.25;1.30;;;;;;;12.08;72.82;97229.19;4967909;28;20423;-57
2022/07/28 03:42:00;;;;;;;3.77;1.17;;;;;;;12.18;72.52;97231.94;4927504;28;1130718;-58
2022/07/28 03:44:28;;;;;;;3.78;1.23;;;;;;;12.16;72.52;97233.31;4948588;28;20140;-57
2022/07/28 03:46:55;;;;;;;4.72;1.30;;;;;;;12.00;73.17;97232.38;4965238;28;20467;-57
2022/07/28 03:49:21;;;;;;;6.30;1.40;;;;;;;12.13;72.52;97237.38;4948648;29;20543;-57
2022/07/28 03:51:48;;;;;;;3.95;1.70;;;;;;;12.15;72.48;97235.19;4964904;28;20293;-56
2022/07/28 03:54:15;;;;;;;3.78;1.30;;;;;;;12.14;72.47;97240.88;4966200;28;20047;-56
2022/07/28 03:56:42;;;;;;;2.92;1.38;;;;;;;12.10;72.66;97241.41;4965899;28;20053;-58
2022/07/28 03:59:10;;;;;;;3.58;1.40;;;;;;;11.96;73.39;97251.09;4965167;28;20105;-58
2022/07/28 04:01:37;;;;;;;2.47;1.35;;;;;;;11.97;73.39;97245.41;4966058;28;20577;-58
2022/07/28 04:04:04;;;;;;;2.78;1.30;;;;;;;12.09;72.68;97242.50;4964884;28;20050;-57
2022/07/28 04:06:30;;;;;;;6.35;2.15;;;;;;;12.05;72.85;97238.66;4964841;28;20494;-59
2022/07/28 04:08:57;;;;;;;4.57;1.35;;;;;;;12.08;72.93;97240.03;4965606;28;20243;-57
2022/07/28 04:11:23;;;;;;;5.45;1.65;;;;;;;12.06;73.38;97245.72;4965228;28;20043;-58
2022/07/28 04:13:50;;;;;;;3.40;1.25;;;;;;;12.10;73.24;97254.16;4965108;28;20736;-56
2022/07/28 04:16:16;;;;;;;2.40;1.17;;;;;;;12.21;72.58;97255.81;4959134;28;20050;-59
2022/07/28 04:18:43;;;;;;;3.22;1.30;;;;;;;12.42;71.79;97244.25;4964653;28;20105;-59
2022/07/28 04:21:10;;;;;;;2.17;1.20;;;;;;;12.45;72.08;97247.22;4959382;28;20078;-56
2022/07/28 04:23:36;;;;;;;8.60;2.03;;;;;;;12.49;71.60;97247.50;4948522;28;20067;-59
2022/07/28 04:26:03;;;;;;;3.08;1.60;;;;;;;12.54;71.36;97244.81;4956835;28;20046;-58
2022/07/28 04:28:29;;;;;;;5.78;2.97;;;;;;;12.68;71.13;97241.59;4967556;28;20061;-57
2022/07/28 04:30:56;;;;;;;6.63;1.92;;;;;;;12.69;70.96;97246.75;4964465;28;20090;-57
2022/07/28 04:33:23;;;;;;;3.45;1.55;;;;;;;12.55;71.63;97243.72;4967841;28;20506;-58
2022/07/28 04:35:51;;;;;;;6.30;1.30;;;;;;;12.73;71.04;97249.75;4966023;28;20047;-60
2022/07/28 04:38:19;;;;;;;5.32;1.63;;;;;;;12.82;70.72;97241.84;4956391;28;20047;-58
2022/07/28 04:40:48;;;;;;;4.43;1.30;;;;;;;12.92;69.93;97251.94;4954328;28;20042;-58
2022/07/28 04:43:15;;;;;;;7.47;2.05;;;;;;;13.03;69.71;97248.16;4967438;28;20046;-59
2022/07/28 04:45:41;;;;;;;3.13;1.10;;;;;;;13.08;69.17;97242.69;4962065;28;20042;-58
2022/07/28 04:48:20;;;;;;;3.85;1.10;;;;;;;13.08;69.69;97244.63;4965945;28;20058;-59
2022/07/28 04:50:46;;;;;;;3.33;1.30;;;;;;;13.06;70.03;97241.34;4966572;28;20474;-59
2022/07/28 04:53:13;;;;;;;4.43;1.20;;;;;;;13.15;69.85;97239.72;4967306;28;20053;-58
2022/07/28 04:55:39;;;;;;;2.67;1.15;;;;;;;13.23;70.54;97244.59;4960975;28;20467;-57
2022/07/28 04:58:06;;;;;;;7.78;1.35;;;;;;;13.23;70.27;97244.59;4954864;28;20078;-57
2022/07/28 05:00:34;;;;;;;4.38;1.60;;;;;;;13.10;71.03;97240.53;4964684;28;20050;-59
2022/07/28 05:03:03;;;;;;;2.88;1.50;;;;;;;13.06;70.47;97238.63;4965056;28;20043;-62
2022/07/28 05:05:30;;;;;;;3.45;1.40;;;;;;;13.12;71.16;97243.78;4962024;28;20043;-61
2022/07/28 05:07:56;;;;;;;3.00;1.10;;;;;;;13.20;70.61;97244.34;4964715;28;20085;-62
2022/07/28 05:10:23;;;;;;;5.38;1.20;;;;;;;13.12;70.62;97235.63;4951148;28;20429;-62
2022/07/28 05:12:51;;;;;;;4.90;1.65;;;;;;;13.32;69.37;97238.63;4963456;28;20050;-62
2022/07/28 05:15:18;;;;;;;4.03;1.30;;;;;;;13.47;69.11;97241.34;4961279;28;20054;-62
2022/07/28 05:17:44;;;;;;;4.43;1.65;;;;;;;13.58;68.89;97242.16;4960610;28;20089;-62
2022/07/28 05:20:12;;;;;;;4.15;2.22;;;;;;;13.64;69.49;97245.69;4964868;28;20057;-62
2022/07/28 05:22:42;;;;;;;4.95;1.42;;;;;;;13.57;70.88;97232.38;4964185;28;20051;-62
2022/07/28 05:25:20;;;;;;;5.60;1.42;;;;;;;13.78;69.54;97243.19;4964341;28;20064;-62
2022/07/28 05:27:47;;;;;;;4.20;1.50;;;;;;;13.96;68.92;97236.34;4960662;28;20039;-61
2022/07/28 05:30:15;;;;;;;4.47;1.27;;;;;;;14.15;65.75;97241.16;4961986;28;20609;-62
2022/07/28 05:32:42;;;;;;;4.75;1.52;;;;;;;14.30;66.21;97243.84;4963778;28;20494;-63
2022/07/28 05:35:08;;;;;;;2.92;1.15;;;;;;;14.40;64.77;97240.25;4964544;28;20141;-62
2022/07/28 05:37:36;;;;;;;3.33;1.92;;;;;;;14.60;64.15;97235.78;4964502;28;20097;-62
2022/07/28 05:40:09;;;;;;;4.18;1.58;;;;;;;14.59;66.53;97245.03;4964198;28;20486;-62
2022/07/28 05:42:35;;;;;;;4.32;1.60;;;;;;;14.66;65.69;97247.44;4963511;28;20038;-63
2022/07/28 05:45:07;;;;;;;2.28;1.13;;;;;;;14.90;63.42;97228.53;4964915;28;20105;-62
2022/07/28 05:47:45;;;;;;;3.35;1.33;;;;;;;15.05;62.32;97237.69;4952497;28;20046;-62
2022/07/28 05:50:14;;;;;;;3.20;1.20;;;;;;;15.18;61.82;97242.50;4964668;28;20043;-62
2022/07/28 05:52:40;;;;;;;8.02;1.60;;;;;;;15.27;61.46;97241.88;4964026;28;20070;-62
2022/07/28 05:55:08;;;;;;;3.97;1.30;;;;;;;15.33;61.41;97238.00;4964366;28;20047;-62
2022/07/28 05:57:36;;;;;;;6.55;1.30;;;;;;;15.50;60.66;97236.75;4953521;28;20465;-62
2022/07/28 06:00:08;;;;;;;6.47;1.73;;;;;;;15.57;60.50;97243.53;4965314;28;20118;-62
2022/07/28 06:02:38;;;;;;;9.77;2.40;;;;;;;15.67;60.71;97236.34;4963646;28;20521;-62
2022/07/28 06:05:06;;;;;;;9.30;1.75;;;;;;;15.82;60.80;97244.34;4966735;28;20050;-62
2022/07/28 06:07:33;;;;;;;9.05;2.60;;;;;;;15.96;60.19;97236.31;4951661;28;20039;-62
2022/07/28 06:10:11;;;;;;;9.45;1.90;;;;;;;16.10;59.70;97238.34;4966723;28;20221;-62
2022/07/28 06:12:43;;;;;;;4.40;1.48;;;;;;;16.22;59.21;97240.66;4965239;28;20039;-63
2022/07/28 06:15:14;;;;;;;4.35;1.60;;;;;;;16.32;58.71;97236.97;4963673;28;20054;-63
2022/07/28 06:17:41;;;;;;;3.40;1.42;;;;;;;16.45;58.80;97232.72;4963292;28;20526;-66
2022/07/28 06:20:09;;;;;;;3.53;1.30;;;;;;;16.51;58.27;97235.09;4965204;28;20057;-64
2022/07/28 06:22:47;;;;;;;5.38;2.00;;;;;;;16.54;58.01;97238.34;4963141;28;20046;-64
2022/07/28 06:25:25;;;;;;;6.38;1.65;;;;;;;16.56;58.71;97236.94;4964564;28;20554;-64
2022/07/28 06:27:54;;;;;;;6.13;1.70;;;;;;;16.59;58.73;97238.28;4952723;28;20061;-64
2022/07/28 06:30:21;;;;;;;5.93;1.83;;;;;;;16.62;58.78;97234.97;4963765;28;20647;-64
2022/07/28 06:32:48;;;;;;;8.20;3.30;;;;;;;16.68;58.73;97236.50;4964214;28;20474;-64
2022/07/28 06:35:16;;;;;;;5.82;2.25;;;;;;;16.78;59.03;97241.00;4963945;28;20062;-64
2022/07/28 06:37:43;;;;;;;6.72;2.38;;;;;;;16.83;58.63;97242.84;4956142;28;20399;-64
2022/07/28 06:40:11;;;;;;;4.20;1.90;;;;;;;17.01;58.46;97242.03;4968317;28;20506;-63
2022/07/28 06:42:39;;;;;;;7.63;2.17;;;;;;;17.11;58.03;97243.84;4959473;28;20495;-64
2022/07/28 06:45:07;;;;;;;5.93;2.08;;;;;;;17.25;57.83;97237.59;4963574;28;20050;-64
2022/07/28 06:47:33;;;;;;;6.18;2.00;;;;;;;17.36;57.55;97246.44;4958419;28;20058;-64
2022/07/28 06:50:00;;;;;;;6.43;2.15;;;;;;;17.44;57.50;97239.47;4966616;28;20399;-63
2022/07/28 06:52:27;;;;;;;8.25;2.00;;;;;;;17.48;56.74;97235.81;4967314;28;20065;-63
2022/07/28 06:54:54;;;;;;;5.50;2.13;;;;;;;17.60;57.28;97235.34;4967444;28;20051;-63
2022/07/28 06:57:23;;;;;;;5.65;2.22;;;;;;;17.64;56.93;97232.78;4967256;28;20042;-63
2022/07/28 07:00:03;;;;;;;4.35;2.30;;;;;;;17.78;57.27;97235.56;4966710;28;20047;-63
2022/07/28 07:02:30;;;;;;;10.00;2.75;;;;;;;17.78;56.87;97233.66;4965841;28;20705;-63
2022/07/28 07:04:56;;;;;;;8.38;2.30;;;;;;;17.85;56.69;97232.41;4969595;28;20538;-63
2022/07/28 07:07:24;;;;;;;15.30;2.40;;;;;;;18.02;56.46;97235.38;4965682;28;20383;-63
2022/07/28 07:09:50;;;;;;;4.57;2.30;;;;;;;18.19;55.92;97228.50;4963413;28;20058;-63
2022/07/28 07:12:17;;;;;;;3.80;2.20;;;;;;;18.26;56.29;97228.91;4967046;28;20046;-63
2022/07/28 07:14:43;;;;;;;7.28;2.30;;;;;;;18.32;55.83;97233.16;4956208;28;20536;-67
2022/07/28 07:17:10;;;;;;;9.02;2.85;;;;;;;18.41;56.36;97226.94;4963264;28;20055;-66
2022/07/28 07:19:37;;;;;;;4.57;2.35;;;;;;;18.39;56.29;97227.25;4964962;28;20051;-64
2022/07/28 07:22:04;;;;;;;6.18;2.70;;;;;;;18.64;56.61;97230.56;4965584;28;20070;-67
2022/07/28 07:24:31;;;;;;;11.73;2.70;;;;;;;-148.22;100.00;64452.44;4959582;28;20071;-64
2022/07/28 07:26:57;;;;;;;9.52;3.28;;;;;;;-148.22;100.00;64452.44;4963200;28;20458;-65
2022/07/28 07:29:24;;;;;;;8.60;2.90;;;;;;;-148.22;100.00;64452.44;4964713;28;20092;-62
2022/07/28 07:31:57;;;;;;;4.40;2.80;;;;;;;-148.22;100.00;64452.44;4967445;28;20108;-64
2022/07/28 07:34:24;;;;;;;7.25;2.90;;;;;;;-148.22;100.00;64452.44;4961586;28;20562;-66
2022/07/28 07:36:50;;;;;;;5.90;3.47;;;;;;;-148.22;100.00;64452.44;4968567;28;20109;-61
2022/07/28 07:39:17;;;;;;;7.97;3.17;;;;;;;-148.22;100.00;64452.44;4967588;28;20446;-61
2022/07/28 07:41:43;;;;;;;7.55;3.45;;;;;;;-148.22;100.00;64452.44;4968639;28;20051;-65
2022/07/28 07:44:10;;;;;;;7.15;3.50;;;;;;;-148.22;100.00;64452.44;4968340;28;20039;-64
2022/07/28 07:46:38;;;;;;;6.05;2.90;;;;;;;-148.22;100.00;64452.44;4966871;28;20054;-66
2022/07/28 07:49:05;;;;;;;5.22;3.25;;;;;;;-148.22;100.00;64452.44;4967333;28;20462;-64
2022/07/28 07:51:33;;;;;;;6.43;3.88;;;;;;;-148.22;100.00;64452.44;4966769;28;20545;-64
2022/07/28 07:53:59;;;;;;;4.60;3.17;;;;;;;-148.22;100.00;64452.44;4962444;28;20039;-65
2022/07/28 07:56:26;;;;;;;9.48;3.80;;;;;;;-148.22;100.00;64452.44;4967483;28;20046;-65
2022/07/28 07:58:52;;;;;;;6.03;3.38;;;;;;;-148.22;100.00;64452.44;4967352;28;20055;-65
2022/07/28 08:01:22;;;;;;;7.57;4.03;;;;;;;-148.22;100.00;64452.44;4963836;28;20046;-65
2022/07/28 08:03:49;;;;;;;5.72;3.33;;;;;;;-148.22;100.00;64452.44;4960819;28;20058;-66
2022/07/28 08:06:16;;;;;;;8.43;3.53;;;;;;;-148.22;100.00;64452.44;4959537;28;20035;-65
2022/07/28 08:08:53;;;;;;;7.45;3.80;;;;;;;-148.22;100.00;64452.44;4968885;28;20050;-64
2022/07/28 08:11:20;;;;;;;6.22;3.60;;;;;;;-148.22;100.00;64452.44;4958564;28;20055;-61
2022/07/28 08:13:47;;;;;;;7.35;3.80;;;;;;;-148.22;100.00;64452.44;4964401;28;20043;-66
2022/07/28 08:16:13;;;;;;;6.63;3.80;;;;;;;-148.22;100.00;64452.44;4961365;28;20041;-66
2022/07/28 08:18:40;;;;;;;10.77;4.38;;;;;;;-148.22;100.00;64452.44;4960674;28;20046;-66
2022/07/28 08:21:06;;;;;;;7.22;4.22;;;;;;;-148.22;100.00;64452.44;4954044;28;20054;-61
2022/07/28 08:23:33;;;;;;;6.03;3.55;;;;;;;-148.22;100.00;64452.44;4967756;28;20097;-65
2022/07/28 08:26:01;;;;;;;7.47;3.45;;;;;;;-148.22;100.00;64452.44;4962117;28;20651;-66
2022/07/28 08:28:27;;;;;;;12.50;4.70;;;;;;;-148.22;100.00;64452.44;4965195;28;20490;-66
2022/07/28 08:30:54;;;;;;;6.72;4.10;;;;;;;-148.22;100.00;64452.44;4959764;28;20469;-65
2022/07/28 08:33:21;;;;;;;7.45;4.50;;;;;;;-148.22;100.00;64452.44;4962282;28;20067;-66
2022/07/28 08:35:48;;;;;;;7.97;4.68;;;;;;;-148.22;100.00;64452.44;4964052;28;20039;-66
2022/07/28 08:38:15;;;;;;;5.88;3.95;;;;;;;-148.22;100.00;64452.44;4954144;28;20094;-65
2022/07/28 08:40:47;;;;;;;9.27;5.28;;;;;;;-148.22;100.00;64452.44;4959918;28;20050;-66
2022/07/28 08:43:33;;;;;;;8.45;4.07;;;;;;;-148.22;100.00;64452.44;4961283;28;20050;-66
2022/07/28 08:46:01;;;;;;;7.35;4.45;;;;;;;-148.22;100.00;64452.44;4958294;28;20039;-66
2022/07/28 08:48:37;;;;;;;8.40;4.63;;;;;;;-148.22;100.00;64452.44;4963005;28;20438;-67
2022/07/28 08:51:10;;;;;;;7.95;4.18;;;;;;;-148.22;100.00;64452.44;4964190;28;20054;-69
2022/07/28 08:53:38;;;;;;;7.53;4.10;;;;;;;-148.22;100.00;64452.44;4964513;28;20054;-67
2022/07/28 08:56:08;;;;;;;7.70;3.70;;;;;;;-148.22;100.00;64452.44;4957985;28;20062;-66
2022/07/28 08:58:36;;;;;;;7.88;3.60;;;;;;;-148.22;100.00;64452.44;4964173;28;20529;-63
2022/07/28 09:01:07;;;;;;;7.53;4.10;;;;;;;-148.22;100.00;64452.44;4964508;28;20050;-65
2022/07/28 09:03:35;;;;;;;8.20;3.92;;;;;;;-148.22;100.00;64452.44;4964087;28;20043;-67
2022/07/28 09:06:02;;;;;;;6.78;4.15;;;;;;;-148.22;100.00;64452.44;4963704;28;20050;-66
2022/07/28 09:08:28;;;;;;;6.88;4.22;;;;;;;-148.22;100.00;64452.44;4961904;28;20043;-60
2022/07/28 09:10:55;;;;;;;7.75;4.30;;;;;;;-148.22;100.00;64452.44;4965592;28;20526;-65
2022/07/28 09:13:21;;;;;;;7.07;3.72;;;;;;;-148.22;100.00;64452.44;4962891;28;20057;-62
2022/07/28 09:15:48;;;;;;;8.52;4.10;;;;;;;-148.22;100.00;64452.44;4964860;28;20521;-61
2022/07/28 09:18:17;;;;;;;7.38;4.88;;;;;;;-148.22;100.00;64452.44;4958142;28;20101;-62
2022/07/28 09:20:44;;;;;;;6.70;4.07;;;;;;;-148.22;100.00;64452.44;4963727;28;20051;-62
2022/07/28 09:23:11;;;;;;;9.55;3.88;;;;;;;-148.22;100.00;64452.44;4964922;28;20042;-61
2022/07/28 09:26:08;;;;;;;11.68;4.20;;;;;;;-148.22;100.00;64452.44;4963417;28;20129;-62
2022/07/28 09:28:53;;;;;;;7.82;4.63;;;;;;;-148.22;100.00;64452.44;4962550;28;20157;-61
2022/07/28 09:31:21;;;;;;;7.00;4.30;;;;;;;-148.22;100.00;64452.44;4965691;28;20121;-61
2022/07/28 09:34:01;;;;;;;7.75;4.25;;;;;;;-148.22;100.00;64452.44;4963433;28;20379;-62
2022/07/28 09:36:29;;;;;;;8.35;4.72;;;;;;;-148.22;100.00;64452.44;4960406;28;20069;-62
2022/07/28 09:38:56;;;;;;;8.20;4.43;;;;;;;-148.22;100.00;64452.44;4963692;28;20050;-62
2022/07/28 09:41:24;;;;;;;6.97;3.80;;;;;;;-148.22;100.00;64452.44;4963988;28;20553;-62
2022/07/28 09:43:51;;;;;;;6.50;4.20;;;;;;;-148.22;100.00;64452.44;4963209;28;20050;-62
2022/07/28 09:46:24;;;;;;;8.63;4.30;;;;;;;-148.22;100.00;64452.44;4964205;28;20433;-62
2022/07/28 09:48:59;;;;;;;8.05;4.05;;;;;;;-148.22;100.00;64452.44;4963346;28;20130;-62
2022/07/28 09:51:29;;;;;;;5.75;4.07;;;;;;;-148.22;100.00;64452.44;4964344;28;20117;-62
2022/07/28 09:54:16;;;;;;;6.13;3.90;;;;;;;-148.22;100.00;64452.44;4963505;28;20046;-62
2022/07/28 09:56:44;;;;;;;8.18;3.92;;;;;;;-148.22;100.00;64452.44;4961307;28;20046;-62
2022/07/28 09:59:12;;;;;;;7.95;4.00;;;;;;;-148.22;100.00;64452.44;4957216;28;20054;-62
2022/07/28 10:01:58;;;;;;;7.75;4.60;;;;;;;-148.22;100.00;64452.44;4963325;28;20058;-62
2022/07/28 10:04:36;;;;;;;12.15;4.20;;;;;;;-148.22;100.00;64452.44;4961569;28;20058;-69
2022/07/28 10:07:04;;;;;;;5.20;3.08;;;;;;;-148.22;100.00;64452.44;4953843;28;20385;-67
2022/07/28 10:09:31;;;;;;;6.63;4.22;;;;;;;-148.22;100.00;64452.44;4957542;28;20051;-68
2022/07/28 10:12:16;;;;;;;6.95;4.13;;;;;;;-148.22;100.00;64452.44;4962323;28;20054;-64
2022/07/28 10:14:45;;;;;;;9.02;4.57;;;;;;;-148.22;100.00;64452.44;4964946;28;20258;-67
2022/07/28 10:17:33;;;;;;;9.30;4.30;;;;;;;-148.22;100.00;64452.44;4967751;28;20055;-64
2022/07/28 10:20:02;;;;;;;7.32;4.68;;;;;;;-148.22;100.00;64452.44;4965028;28;20093;-69
2022/07/28 10:22:33;;;;;;;7.90;3.97;;;;;;;-148.22;100.00;64452.44;4962027;28;20046;-67
2022/07/28 10:25:09;;;;;;;5.47;3.75;;;;;;;-148.22;100.00;64452.44;4964578;28;20104;-66
2022/07/28 10:27:38;;;;;;;6.75;4.00;;;;;;;-148.22;100.00;64452.44;4967476;28;20514;-66
2022/07/28 10:30:05;;;;;;;5.88;3.50;;;;;;;-148.22;100.00;64452.44;4968172;28;20050;-67
2022/07/28 10:32:37;;;;;;;5.95;3.70;;;;;;;-148.22;100.00;64452.44;4966758;28;20054;-65
2022/07/28 10:35:09;;;;;;;4.93;3.22;;;;;;;-148.22;100.00;64452.44;4957320;28;20355;-65
2022/07/28 10:37:53;;;;;;;6.88;3.25;;;;;;;-148.22;100.00;64452.44;4963359;28;21970;-67
2022/07/28 10:40:26;;;;;;;6.18;3.28;;;;;;;-148.22;100.00;64452.44;4964679;28;20533;-67
2022/07/28 10:42:54;;;;;;;6.68;3.75;;;;;;;-148.22;100.00;64452.44;4966149;28;20098;-63
2022/07/28 10:45:21;;;;;;;5.20;3.72;;;;;;;-148.22;100.00;64452.44;4965946;28;20047;-67
2022/07/28 10:47:48;;;;;;;6.43;3.08;;;;;;;-148.22;100.00;64452.44;4966528;28;20109;-61
2022/07/28 10:50:15;;;;;;;5.45;3.22;;;;;;;-148.22;100.00;64452.44;4959636;28;20086;-68
2022/07/28 10:52:43;;;;;;;3.75;2.60;;;;;;;-148.22;100.00;64452.44;4961959;28;20051;-68
2022/07/28 10:55:33;;;;;;;5.38;3.30;;;;;;;-148.22;100.00;64452.44;4965930;28;20043;-67
2022/07/28 10:58:18;;;;;;;7.80;3.90;;;;;;;-148.22;100.00;64452.44;4967120;28;20042;-71
2022/07/28 11:00:52;;;;;;;7.60;2.83;;;;;;;-148.22;100.00;64452.44;4958998;28;20103;-71
2022/07/28 11:03:43;;;;;;;6.18;3.00;;;;;;;-148.22;100.00;64452.44;4964470;28;20294;-66
2022/07/28 11:06:29;;;;;;;6.68;3.17;;;;;;;-148.22;100.00;64452.44;4965421;28;20132;-71
2022/07/28 11:08:58;;;;;;;6.38;3.15;;;;;;;-148.22;100.00;64452.44;4957150;28;20050;-73
2022/07/28 11:11:46;;;;;;;6.47;3.30;;;;;;;-148.22;100.00;64452.44;4962420;28;20577;-70
2022/07/28 11:14:25;;;;;;;6.25;3.63;;;;;;;-148.22;100.00;64452.44;4966362;28;20080;-71
2022/07/28 11:17:04;;;;;;;4.68;3.15;;;;;;;-148.22;100.00;64452.44;4956107;28;20054;-69
2022/07/28 11:19:45;;;;;;;8.02;3.50;;;;;;;-148.22;100.00;64452.44;4964316;28;20038;-63
2022/07/28 11:22:32;;;;;;;6.75;2.90;;;;;;;-148.22;100.00;64452.44;4966743;28;20054;-69
2022/07/28 11:25:09;;;;;;;4.18;3.00;;;;;;;-148.22;100.00;64452.44;4966359;28;20039;-69
2022/07/28 11:27:49;;;;;;;4.55;2.95;;;;;;;-148.22;100.00;64452.44;4963373;28;20066;-72
2022/07/28 11:30:17;;;;;;;5.32;2.90;;;;;;;-148.22;100.00;64452.44;4960382;28;20047;-70
2022/07/28 11:32:50;;;;;;;6.95;3.60;;;;;;;-148.22;100.00;64452.44;4965264;28;20558;-71
2022/07/28 11:35:18;;;;;;;5.95;2.95;;;;;;;-148.22;100.00;64452.44;4966203;28;20043;-70
2022/07/28 11:38:00;;;;;;;3.95;2.70;;;;;;;-148.22;100.00;64452.44;4965823;28;20056;-70
2022/07/28 11:40:33;;;;;;;5.93;3.00;;;;;;;-148.22;100.00;64452.44;4953127;28;20148;-68
2022/07/28 11:43:35;;;;;;;5.35;3.22;;;;;;;-148.22;100.00;64452.44;4962518;28;20451;-69